Machias, WA

2:37 PM PDT on March 24, 2017 (GMT -0700)
Green View Ridge | | Change Station

Elev 276 ft 47.97 °N, 122.07 °W | Updated 7 minutes ago

Rain
Rain
48.5 °F
Feels Like 48 °F
N
0.0
Wind Variable Wind from South
Gusts 3.0 mph

Today
High -- | Low -- °F
--% Chance of Precip.
Yesterday
High -- | Low -- °F
Precip. -- in
Pressure 29.83 in
Visibility 6.0 miles
Clouds Mostly Cloudy 2400 ft
Overcast 4100 ft
Windchill 48 °F
Dew Point 46 °F
Humidity 89%
Rainfall 0.29 in
Snow Depth Not available.
7:02 AM 7:27 PM
Waning Crescent, 13% visible
METAR KPAE 242053Z 18012G18KT 6SM -RA BKN024 OVC041 09/07 A2983 RMK AO2 RAB32 SLP101 P0003 60003 T00940067 53008
Pressure 29.83 in
Visibility 6.0 miles
Clouds Mostly Cloudy 2400 ft
Overcast 4100 ft
Windchill 48 °F
Dew Point 46 °F
Humidity 89%
Rainfall 0.29 in
Snow Depth Not available.
7:02 AM 7:27 PM
Waning Crescent, 13% visible
METAR KPAE 242053Z 18012G18KT 6SM -RA BKN024 OVC041 09/07 A2983 RMK AO2 RAB32 SLP101 P0003 60003 T00940067 53008

Get Severe Weather Alerts

Thanks for signing up!

Be on the lookout for a verification email in your inbox.

You'll start receiving the daily forecast at 8 AM.

×

10-Day Weather Forecast

Almanac

Astronomy

Mar. 24, 2017 Rise Set
Actual Time
Civil Twilight
Nautical Twilight
Astronomical Twilight
Moon
Length of Visible Light
Length of Day
Tomorrow will be .
, % of the Moon is Illuminated

Today's Extremes

State Highs State Lows

Community

WunderPhotos

Upload Photos

1,962,540 photos uploaded!

WunderBlog® & News

Nearby

Air Quality

  Air Quality AQ Index Pollutant
Not available.

Snow Depth

Station Depth Elevation

Earthquake Activity

City Distance Mag. Time & Date
Minimum magnitude displayed is 2.5.

Earthquake Activity

City Distance Mag. Time & Date
Minimum magnitude displayed is 2.5.

Coastal Water Temperatures

Place Temperature

Stations

Nearby Weather Stations

Station Location Temp. Windchill Dew Point Humidity Wind Precip. Elev Updated Type
                   

Watches & Warnings

There are currently no watches in effect.